sensor_id;sensor_type;location;lat;lon;timestamp;P1;durP1;ratioP1;P2;durP2;ratioP2
44143;SDS011;71749;51.920;4.492;2024-03-07T00:02:47;38.03;;;25.40;;
44143;SDS011;71749;51.920;4.492;2024-03-07T00:05:34;42.63;;;28.38;;
44143;SDS011;71749;51.920;4.492;2024-03-07T00:08:19;39.05;;;26.42;;
44143;SDS011;71749;51.920;4.492;2024-03-07T00:11:05;40.63;;;27.08;;
44143;SDS011;71749;51.920;4.492;2024-03-07T00:13:52;41.72;;;27.90;;
44143;SDS011;71749;51.920;4.492;2024-03-07T00:16:38;39.55;;;27.20;;
44143;SDS011;71749;51.920;4.492;2024-03-07T00:19:23;39.72;;;26.52;;
44143;SDS011;71749;51.920;4.492;2024-03-07T00:22:12;39.38;;;26.80;;
44143;SDS011;71749;51.920;4.492;2024-03-07T00:24:57;42.60;;;27.80;;
44143;SDS011;71749;51.920;4.492;2024-03-07T00:27:42;45.47;;;28.55;;
44143;SDS011;71749;51.920;4.492;2024-03-07T00:30:30;46.10;;;28.67;;
44143;SDS011;71749;51.920;4.492;2024-03-07T00:33:15;37.63;;;25.27;;
44143;SDS011;71749;51.920;4.492;2024-03-07T00:36:01;38.70;;;26.17;;
44143;SDS011;71749;51.920;4.492;2024-03-07T00:38:49;42.22;;;27.30;;
44143;SDS011;71749;51.920;4.492;2024-03-07T00:41:35;38.78;;;25.27;;
44143;SDS011;71749;51.920;4.492;2024-03-07T00:44:23;37.03;;;25.27;;
44143;SDS011;71749;51.920;4.492;2024-03-07T00:47:09;38.25;;;25.23;;
44143;SDS011;71749;51.920;4.492;2024-03-07T00:49:55;40.30;;;26.52;;
44143;SDS011;71749;51.920;4.492;2024-03-07T00:52:40;32.60;;;23.15;;
44143;SDS011;71749;51.920;4.492;2024-03-07T00:55:25;34.92;;;22.63;;
44143;SDS011;71749;51.920;4.492;2024-03-07T00:58:11;31.50;;;21.65;;
44143;SDS011;71749;51.920;4.492;2024-03-07T01:00:57;39.45;;;26.10;;
44143;SDS011;71749;51.920;4.492;2024-03-07T01:03:43;32.67;;;22.60;;
44143;SDS011;71749;51.920;4.492;2024-03-07T01:06:28;33.97;;;23.60;;
44143;SDS011;71749;51.920;4.492;2024-03-07T01:09:13;38.75;;;25.77;;
44143;SDS011;71749;51.920;4.492;2024-03-07T01:11:59;40.53;;;27.35;;
44143;SDS011;71749;51.920;4.492;2024-03-07T01:14:45;41.10;;;27.63;;
44143;SDS011;71749;51.920;4.492;2024-03-07T01:17:31;40.72;;;27.42;;
44143;SDS011;71749;51.920;4.492;2024-03-07T01:20:18;46.15;;;28.27;;
44143;SDS011;71749;51.920;4.492;2024-03-07T01:23:04;39.20;;;26.60;;
44143;SDS011;71749;51.920;4.492;2024-03-07T01:25:49;39.80;;;25.92;;
44143;SDS011;71749;51.920;4.492;2024-03-07T01:28:36;39.05;;;26.38;;
44143;SDS011;71749;51.920;4.492;2024-03-07T01:31:22;39.25;;;26.00;;
44143;SDS011;71749;51.920;4.492;2024-03-07T01:34:08;36.83;;;25.02;;
44143;SDS011;71749;51.920;4.492;2024-03-07T01:36:53;40.30;;;26.92;;
44143;SDS011;71749;51.920;4.492;2024-03-07T01:39:39;38.67;;;26.67;;
44143;SDS011;71749;51.920;4.492;2024-03-07T01:42:24;41.28;;;27.13;;
44143;SDS011;71749;51.920;4.492;2024-03-07T01:45:09;43.13;;;27.10;;
44143;SDS011;71749;51.920;4.492;2024-03-07T01:47:55;41.80;;;26.75;;
44143;SDS011;71749;51.920;4.492;2024-03-07T01:50:41;39.17;;;25.77;;
44143;SDS011;71749;51.920;4.492;2024-03-07T01:53:27;42.38;;;27.67;;
44143;SDS011;71749;51.920;4.492;2024-03-07T01:56:14;40.10;;;27.67;;
44143;SDS011;71749;51.920;4.492;2024-03-07T01:58:59;43.28;;;28.73;;
44143;SDS011;71749;51.920;4.492;2024-03-07T02:01:49;40.88;;;27.45;;
44143;SDS011;71749;51.920;4.492;2024-03-07T02:04:35;45.13;;;28.88;;
44143;SDS011;71749;51.920;4.492;2024-03-07T02:07:24;40.22;;;26.77;;
44143;SDS011;71749;51.920;4.492;2024-03-07T02:10:11;45.65;;;29.25;;
44143;SDS011;71749;51.920;4.492;2024-03-07T02:12:57;46.50;;;30.70;;
44143;SDS011;71749;51.920;4.492;2024-03-07T02:15:44;43.97;;;29.85;;
44143;SDS011;71749;51.920;4.492;2024-03-07T02:18:30;45.85;;;29.58;;
44143;SDS011;71749;51.920;4.492;2024-03-07T02:21:15;45.95;;;29.33;;
44143;SDS011;71749;51.920;4.492;2024-03-07T02:24:01;47.97;;;30.10;;
44143;SDS011;71749;51.920;4.492;2024-03-07T02:26:46;47.17;;;30.98;;
44143;SDS011;71749;51.920;4.492;2024-03-07T02:29:32;46.05;;;30.08;;
44143;SDS011;71749;51.920;4.492;2024-03-07T02:32:18;45.88;;;30.75;;
44143;SDS011;71749;51.920;4.492;2024-03-07T02:35:03;47.08;;;30.95;;
44143;SDS011;71749;51.920;4.492;2024-03-07T02:37:49;49.75;;;30.98;;
44143;SDS011;71749;51.920;4.492;2024-03-07T02:40:35;44.45;;;29.35;;
44143;SDS011;71749;51.920;4.492;2024-03-07T02:43:20;52.55;;;30.98;;
44143;SDS011;71749;51.920;4.492;2024-03-07T02:46:06;48.10;;;31.50;;
44143;SDS011;71749;51.920;4.492;2024-03-07T02:48:52;46.97;;;30.67;;
44143;SDS011;71749;51.920;4.492;2024-03-07T02:51:37;51.22;;;30.98;;
44143;SDS011;71749;51.920;4.492;2024-03-07T02:54:22;49.05;;;32.47;;
44143;SDS011;71749;51.920;4.492;2024-03-07T02:57:07;50.28;;;32.25;;
44143;SDS011;71749;51.920;4.492;2024-03-07T02:59:53;50.38;;;32.00;;
44143;SDS011;71749;51.920;4.492;2024-03-07T03:02:38;48.70;;;31.73;;
44143;SDS011;71749;51.920;4.492;2024-03-07T03:05:23;48.63;;;31.23;;
44143;SDS011;71749;51.920;4.492;2024-03-07T03:08:09;52.38;;;31.95;;
44143;SDS011;71749;51.920;4.492;2024-03-07T03:10:55;53.35;;;31.95;;
44143;SDS011;71749;51.920;4.492;2024-03-07T03:13:42;49.88;;;30.50;;
44143;SDS011;71749;51.920;4.492;2024-03-07T03:16:27;48.40;;;29.65;;
44143;SDS011;71749;51.920;4.492;2024-03-07T03:19:31;48.90;;;30.83;;
44143;SDS011;71749;51.920;4.492;2024-03-07T03:22:17;45.88;;;29.65;;
44143;SDS011;71749;51.920;4.492;2024-03-07T03:25:05;51.08;;;32.17;;
44143;SDS011;71749;51.920;4.492;2024-03-07T03:27:52;47.90;;;31.42;;
44143;SDS011;71749;51.920;4.492;2024-03-07T03:30:38;47.22;;;31.67;;
44143;SDS011;71749;51.920;4.492;2024-03-07T03:33:24;51.13;;;32.90;;
44143;SDS011;71749;51.920;4.492;2024-03-07T03:36:10;49.40;;;31.83;;
44143;SDS011;71749;51.920;4.492;2024-03-07T03:38:55;49.80;;;32.28;;
44143;SDS011;71749;51.920;4.492;2024-03-07T03:41:41;48.72;;;31.48;;
44143;SDS011;71749;51.920;4.492;2024-03-07T03:44:27;52.03;;;32.92;;
44143;SDS011;71749;51.920;4.492;2024-03-07T03:47:12;49.30;;;30.88;;
44143;SDS011;71749;51.920;4.492;2024-03-07T03:49:58;49.55;;;31.65;;
44143;SDS011;71749;51.920;4.492;2024-03-07T03:52:44;44.08;;;29.13;;
44143;SDS011;71749;51.920;4.492;2024-03-07T03:55:30;51.47;;;32.97;;
44143;SDS011;71749;51.920;4.492;2024-03-07T03:58:17;47.40;;;30.55;;
44143;SDS011;71749;51.920;4.492;2024-03-07T04:01:03;47.90;;;30.67;;
44143;SDS011;71749;51.920;4.492;2024-03-07T04:03:52;50.72;;;32.80;;
44143;SDS011;71749;51.920;4.492;2024-03-07T04:06:38;48.88;;;30.70;;
44143;SDS011;71749;51.920;4.492;2024-03-07T04:09:23;49.40;;;31.65;;
44143;SDS011;71749;51.920;4.492;2024-03-07T04:12:08;51.83;;;31.80;;
44143;SDS011;71749;51.920;4.492;2024-03-07T04:14:57;48.35;;;31.13;;
44143;SDS011;71749;51.920;4.492;2024-03-07T04:17:42;50.75;;;32.63;;
44143;SDS011;71749;51.920;4.492;2024-03-07T04:20:32;49.03;;;32.70;;
44143;SDS011;71749;51.920;4.492;2024-03-07T04:23:18;55.22;;;32.80;;
44143;SDS011;71749;51.920;4.492;2024-03-07T04:26:03;52.78;;;31.08;;
44143;SDS011;71749;51.920;4.492;2024-03-07T04:28:49;51.72;;;32.85;;
44143;SDS011;71749;51.920;4.492;2024-03-07T04:31:36;49.17;;;32.08;;
44143;SDS011;71749;51.920;4.492;2024-03-07T04:34:21;50.75;;;31.58;;
44143;SDS011;71749;51.920;4.492;2024-03-07T04:37:07;54.63;;;33.78;;
44143;SDS011;71749;51.920;4.492;2024-03-07T04:39:53;52.38;;;32.80;;
44143;SDS011;71749;51.920;4.492;2024-03-07T04:42:38;48.47;;;31.83;;
44143;SDS011;71749;51.920;4.492;2024-03-07T04:45:24;49.10;;;31.20;;
44143;SDS011;71749;51.920;4.492;2024-03-07T04:48:10;55.80;;;34.42;;
44143;SDS011;71749;51.920;4.492;2024-03-07T04:50:55;47.00;;;30.75;;
44143;SDS011;71749;51.920;4.492;2024-03-07T04:53:42;50.40;;;32.30;;
44143;SDS011;71749;51.920;4.492;2024-03-07T04:56:27;49.75;;;31.48;;
44143;SDS011;71749;51.920;4.492;2024-03-07T04:59:13;52.60;;;32.92;;
44143;SDS011;71749;51.920;4.492;2024-03-07T05:01:59;49.17;;;31.13;;
44143;SDS011;71749;51.920;4.492;2024-03-07T05:04:45;49.08;;;30.73;;
44143;SDS011;71749;51.920;4.492;2024-03-07T05:07:30;52.50;;;32.60;;
44143;SDS011;71749;51.920;4.492;2024-03-07T05:10:16;50.17;;;32.83;;
44143;SDS011;71749;51.920;4.492;2024-03-07T05:13:02;52.78;;;33.08;;
44143;SDS011;71749;51.920;4.492;2024-03-07T05:15:47;50.75;;;32.20;;
44143;SDS011;71749;51.920;4.492;2024-03-07T05:18:33;46.55;;;30.92;;
44143;SDS011;71749;51.920;4.492;2024-03-07T05:21:19;51.65;;;31.98;;
44143;SDS011;71749;51.920;4.492;2024-03-07T05:24:24;52.17;;;32.97;;
44143;SDS011;71749;51.920;4.492;2024-03-07T05:27:10;49.67;;;31.58;;
44143;SDS011;71749;51.920;4.492;2024-03-07T05:29:59;52.30;;;31.83;;
44143;SDS011;71749;51.920;4.492;2024-03-07T05:32:44;51.25;;;32.67;;
44143;SDS011;71749;51.920;4.492;2024-03-07T05:35:30;49.60;;;33.33;;
44143;SDS011;71749;51.920;4.492;2024-03-07T05:38:17;52.97;;;32.58;;
44143;SDS011;71749;51.920;4.492;2024-03-07T05:41:03;55.30;;;32.63;;
44143;SDS011;71749;51.920;4.492;2024-03-07T05:43:49;49.72;;;31.83;;
44143;SDS011;71749;51.920;4.492;2024-03-07T05:46:36;47.85;;;31.08;;
44143;SDS011;71749;51.920;4.492;2024-03-07T05:49:33;47.83;;;31.98;;
44143;SDS011;71749;51.920;4.492;2024-03-07T05:52:19;52.03;;;34.20;;
44143;SDS011;71749;51.920;4.492;2024-03-07T05:55:04;54.53;;;34.45;;
44143;SDS011;71749;51.920;4.492;2024-03-07T05:57:52;51.38;;;32.45;;
44143;SDS011;71749;51.920;4.492;2024-03-07T06:00:37;55.35;;;33.97;;
44143;SDS011;71749;51.920;4.492;2024-03-07T06:03:22;55.58;;;34.63;;
44143;SDS011;71749;51.920;4.492;2024-03-07T06:06:11;52.78;;;33.22;;
44143;SDS011;71749;51.920;4.492;2024-03-07T06:08:57;50.75;;;33.00;;
44143;SDS011;71749;51.920;4.492;2024-03-07T06:11:43;51.83;;;32.92;;
44143;SDS011;71749;51.920;4.492;2024-03-07T06:14:29;50.10;;;32.08;;
44143;SDS011;71749;51.920;4.492;2024-03-07T06:17:15;53.60;;;33.20;;
44143;SDS011;71749;51.920;4.492;2024-03-07T06:20:04;53.25;;;33.08;;
44143;SDS011;71749;51.920;4.492;2024-03-07T06:23:02;51.78;;;32.97;;
44143;SDS011;71749;51.920;4.492;2024-03-07T06:25:50;45.65;;;31.40;;
44143;SDS011;71749;51.920;4.492;2024-03-07T06:28:36;53.22;;;33.42;;
44143;SDS011;71749;51.920;4.492;2024-03-07T06:31:22;53.13;;;34.47;;
44143;SDS011;71749;51.920;4.492;2024-03-07T06:34:07;53.40;;;34.20;;
44143;SDS011;71749;51.920;4.492;2024-03-07T06:36:56;48.40;;;32.25;;
44143;SDS011;71749;51.920;4.492;2024-03-07T06:39:41;52.03;;;32.83;;
44143;SDS011;71749;51.920;4.492;2024-03-07T06:42:27;53.50;;;32.40;;
44143;SDS011;71749;51.920;4.492;2024-03-07T06:45:12;55.47;;;32.72;;
44143;SDS011;71749;51.920;4.492;2024-03-07T06:47:58;55.67;;;35.45;;
44143;SDS011;71749;51.920;4.492;2024-03-07T06:50:43;47.72;;;31.70;;
44143;SDS011;71749;51.920;4.492;2024-03-07T06:53:29;56.47;;;33.60;;
44143;SDS011;71749;51.920;4.492;2024-03-07T06:56:18;51.35;;;33.63;;
44143;SDS011;71749;51.920;4.492;2024-03-07T06:59:04;51.08;;;32.58;;
44143;SDS011;71749;51.920;4.492;2024-03-07T07:01:50;51.85;;;32.78;;
44143;SDS011;71749;51.920;4.492;2024-03-07T07:04:36;48.30;;;31.80;;
44143;SDS011;71749;51.920;4.492;2024-03-07T07:07:27;50.08;;;32.47;;
44143;SDS011;71749;51.920;4.492;2024-03-07T07:10:13;48.17;;;31.67;;
44143;SDS011;71749;51.920;4.492;2024-03-07T07:13:09;48.50;;;31.95;;
44143;SDS011;71749;51.920;4.492;2024-03-07T07:15:55;46.22;;;29.92;;
44143;SDS011;71749;51.920;4.492;2024-03-07T07:18:40;51.08;;;32.33;;
44143;SDS011;71749;51.920;4.492;2024-03-07T07:21:28;50.53;;;33.03;;
44143;SDS011;71749;51.920;4.492;2024-03-07T07:24:13;49.92;;;32.53;;
44143;SDS011;71749;51.920;4.492;2024-03-07T07:26:59;49.63;;;32.45;;
44143;SDS011;71749;51.920;4.492;2024-03-07T07:29:44;48.65;;;32.80;;
44143;SDS011;71749;51.920;4.492;2024-03-07T07:32:31;49.38;;;32.40;;
44143;SDS011;71749;51.920;4.492;2024-03-07T07:35:17;53.22;;;31.55;;
44143;SDS011;71749;51.920;4.492;2024-03-07T07:38:03;49.33;;;31.23;;
44143;SDS011;71749;51.920;4.492;2024-03-07T07:40:48;49.60;;;31.63;;
44143;SDS011;71749;51.920;4.492;2024-03-07T07:43:34;50.72;;;32.28;;
44143;SDS011;71749;51.920;4.492;2024-03-07T07:46:27;49.15;;;31.40;;
44143;SDS011;71749;51.920;4.492;2024-03-07T07:49:13;48.75;;;32.28;;
44143;SDS011;71749;51.920;4.492;2024-03-07T07:51:58;51.22;;;33.03;;
44143;SDS011;71749;51.920;4.492;2024-03-07T07:54:45;49.05;;;32.83;;
44143;SDS011;71749;51.920;4.492;2024-03-07T07:57:30;45.40;;;31.25;;
44143;SDS011;71749;51.920;4.492;2024-03-07T08:00:16;48.33;;;30.48;;
44143;SDS011;71749;51.920;4.492;2024-03-07T08:03:11;50.35;;;33.83;;
44143;SDS011;71749;51.920;4.492;2024-03-07T08:05:56;47.80;;;31.88;;
44143;SDS011;71749;51.920;4.492;2024-03-07T08:08:41;49.15;;;32.22;;
44143;SDS011;71749;51.920;4.492;2024-03-07T08:11:27;46.85;;;31.30;;
44143;SDS011;71749;51.920;4.492;2024-03-07T08:14:15;51.70;;;35.03;;
44143;SDS011;71749;51.920;4.492;2024-03-07T08:17:01;47.13;;;32.30;;
44143;SDS011;71749;51.920;4.492;2024-03-07T08:19:46;44.10;;;29.33;;
44143;SDS011;71749;51.920;4.492;2024-03-07T08:22:33;45.70;;;31.60;;
44143;SDS011;71749;51.920;4.492;2024-03-07T08:25:20;45.45;;;30.35;;
44143;SDS011;71749;51.920;4.492;2024-03-07T08:28:08;43.92;;;31.02;;
44143;SDS011;71749;51.920;4.492;2024-03-07T08:30:54;41.97;;;29.63;;
44143;SDS011;71749;51.920;4.492;2024-03-07T08:33:39;43.97;;;29.23;;
44143;SDS011;71749;51.920;4.492;2024-03-07T08:36:25;45.22;;;31.58;;
44143;SDS011;71749;51.920;4.492;2024-03-07T08:39:10;43.63;;;29.75;;
44143;SDS011;71749;51.920;4.492;2024-03-07T08:41:58;41.85;;;28.38;;
44143;SDS011;71749;51.920;4.492;2024-03-07T08:44:44;37.85;;;27.67;;
44143;SDS011;71749;51.920;4.492;2024-03-07T08:47:34;36.80;;;25.30;;
44143;SDS011;71749;51.920;4.492;2024-03-07T08:50:23;37.97;;;27.70;;
44143;SDS011;71749;51.920;4.492;2024-03-07T08:53:09;34.55;;;26.05;;
44143;SDS011;71749;51.920;4.492;2024-03-07T08:55:55;32.80;;;24.75;;
44143;SDS011;71749;51.920;4.492;2024-03-07T08:58:43;32.67;;;25.00;;
44143;SDS011;71749;51.920;4.492;2024-03-07T09:01:29;30.63;;;23.85;;
44143;SDS011;71749;51.920;4.492;2024-03-07T09:04:14;29.95;;;24.42;;
44143;SDS011;71749;51.920;4.492;2024-03-07T09:07:03;32.85;;;24.25;;
44143;SDS011;71749;51.920;4.492;2024-03-07T09:09:48;30.80;;;24.02;;
44143;SDS011;71749;51.920;4.492;2024-03-07T09:12:33;31.65;;;23.40;;
44143;SDS011;71749;51.920;4.492;2024-03-07T09:15:19;31.48;;;24.13;;
44143;SDS011;71749;51.920;4.492;2024-03-07T09:18:08;27.70;;;21.92;;
44143;SDS011;71749;51.920;4.492;2024-03-07T09:20:54;29.67;;;23.35;;
44143;SDS011;71749;51.920;4.492;2024-03-07T09:23:40;28.05;;;22.27;;
44143;SDS011;71749;51.920;4.492;2024-03-07T09:26:26;26.63;;;20.88;;
44143;SDS011;71749;51.920;4.492;2024-03-07T09:29:12;24.92;;;20.38;;
44143;SDS011;71749;51.920;4.492;2024-03-07T09:31:57;24.92;;;19.80;;
44143;SDS011;71749;51.920;4.492;2024-03-07T09:34:42;26.15;;;19.95;;
44143;SDS011;71749;51.920;4.492;2024-03-07T09:37:31;23.23;;;18.27;;
44143;SDS011;71749;51.920;4.492;2024-03-07T09:40:16;25.95;;;18.85;;
44143;SDS011;71749;51.920;4.492;2024-03-07T09:43:01;24.95;;;19.67;;
44143;SDS011;71749;51.920;4.492;2024-03-07T09:45:47;23.52;;;19.45;;
44143;SDS011;71749;51.920;4.492;2024-03-07T09:48:33;26.20;;;19.20;;
44143;SDS011;71749;51.920;4.492;2024-03-07T09:51:22;21.70;;;17.73;;
44143;SDS011;71749;51.920;4.492;2024-03-07T09:54:08;20.80;;;16.95;;
44143;SDS011;71749;51.920;4.492;2024-03-07T09:56:56;20.70;;;16.42;;
44143;SDS011;71749;51.920;4.492;2024-03-07T09:59:48;19.95;;;15.70;;
44143;SDS011;71749;51.920;4.492;2024-03-07T10:02:36;21.50;;;16.10;;
44143;SDS011;71749;51.920;4.492;2024-03-07T10:05:26;19.27;;;15.50;;
44143;SDS011;71749;51.920;4.492;2024-03-07T10:08:13;20.15;;;16.27;;
44143;SDS011;71749;51.920;4.492;2024-03-07T10:10:59;18.55;;;14.90;;
44143;SDS011;71749;51.920;4.492;2024-03-07T10:13:45;19.30;;;16.25;;
44143;SDS011;71749;51.920;4.492;2024-03-07T10:16:34;17.38;;;14.13;;
44143;SDS011;71749;51.920;4.492;2024-03-07T10:19:19;17.13;;;14.45;;
44143;SDS011;71749;51.920;4.492;2024-03-07T10:22:06;18.02;;;14.77;;
44143;SDS011;71749;51.920;4.492;2024-03-07T10:24:52;16.75;;;14.05;;
44143;SDS011;71749;51.920;4.492;2024-03-07T10:27:41;17.55;;;13.75;;
44143;SDS011;71749;51.920;4.492;2024-03-07T10:30:27;16.23;;;12.60;;
44143;SDS011;71749;51.920;4.492;2024-03-07T10:33:13;15.90;;;12.77;;
44143;SDS011;71749;51.920;4.492;2024-03-07T10:35:59;15.85;;;13.02;;
44143;SDS011;71749;51.920;4.492;2024-03-07T10:38:46;14.55;;;12.10;;
44143;SDS011;71749;51.920;4.492;2024-03-07T10:41:33;15.05;;;12.25;;
44143;SDS011;71749;51.920;4.492;2024-03-07T10:44:24;14.40;;;12.18;;
44143;SDS011;71749;51.920;4.492;2024-03-07T10:47:20;15.80;;;12.68;;
44143;SDS011;71749;51.920;4.492;2024-03-07T10:50:17;15.30;;;11.95;;
44143;SDS011;71749;51.920;4.492;2024-03-07T10:53:12;14.70;;;12.05;;
44143;SDS011;71749;51.920;4.492;2024-03-07T10:59:17;14.70;;;10.57;;
44143;SDS011;71749;51.920;4.492;2024-03-07T11:04:57;13.23;;;10.95;;
44143;SDS011;71749;51.920;4.492;2024-03-07T11:07:44;13.98;;;11.40;;
44143;SDS011;71749;51.920;4.492;2024-03-07T11:10:31;14.98;;;12.07;;
44143;SDS011;71749;51.920;4.492;2024-03-07T11:13:17;14.30;;;11.98;;
44143;SDS011;71749;51.920;4.492;2024-03-07T11:16:03;13.40;;;11.45;;
44143;SDS011;71749;51.920;4.492;2024-03-07T11:22:30;13.32;;;10.90;;
44143;SDS011;71749;51.920;4.492;2024-03-07T11:25:17;13.98;;;12.07;;
44143;SDS011;71749;51.920;4.492;2024-03-07T11:28:04;16.67;;;12.60;;
44143;SDS011;71749;51.920;4.492;2024-03-07T11:30:49;15.55;;;11.70;;
44143;SDS011;71749;51.920;4.492;2024-03-07T11:33:38;15.95;;;12.75;;
44143;SDS011;71749;51.920;4.492;2024-03-07T11:36:42;19.58;;;14.25;;
44143;SDS011;71749;51.920;4.492;2024-03-07T11:39:49;19.83;;;15.55;;
44143;SDS011;71749;51.920;4.492;2024-03-07T11:42:42;20.33;;;15.65;;
44143;SDS011;71749;51.920;4.492;2024-03-07T11:45:30;18.48;;;14.65;;
44143;SDS011;71749;51.920;4.492;2024-03-07T11:48:24;20.10;;;15.20;;
44143;SDS011;71749;51.920;4.492;2024-03-07T11:51:13;20.65;;;14.85;;
44143;SDS011;71749;51.920;4.492;2024-03-07T11:53:59;21.10;;;15.85;;
44143;SDS011;71749;51.920;4.492;2024-03-07T11:56:44;19.90;;;14.13;;
44143;SDS011;71749;51.920;4.492;2024-03-07T11:59:30;19.88;;;14.38;;
44143;SDS011;71749;51.920;4.492;2024-03-07T12:02:22;18.55;;;14.15;;
44143;SDS011;71749;51.920;4.492;2024-03-07T12:05:09;18.65;;;13.60;;
44143;SDS011;71749;51.920;4.492;2024-03-07T12:07:55;21.55;;;14.32;;
44143;SDS011;71749;51.920;4.492;2024-03-07T12:10:42;24.52;;;14.38;;
44143;SDS011;71749;51.920;4.492;2024-03-07T12:13:33;20.63;;;13.80;;
44143;SDS011;71749;51.920;4.492;2024-03-07T12:16:21;21.52;;;14.18;;
44143;SDS011;71749;51.920;4.492;2024-03-07T12:19:14;19.70;;;13.70;;
44143;SDS011;71749;51.920;4.492;2024-03-07T12:22:03;19.05;;;13.65;;
44143;SDS011;71749;51.920;4.492;2024-03-07T12:24:58;20.38;;;13.70;;
44143;SDS011;71749;51.920;4.492;2024-03-07T12:27:58;20.52;;;14.07;;
44143;SDS011;71749;51.920;4.492;2024-03-07T12:30:57;18.95;;;13.45;;
44143;SDS011;71749;51.920;4.492;2024-03-07T12:33:42;19.13;;;13.98;;
44143;SDS011;71749;51.920;4.492;2024-03-07T12:36:37;19.35;;;13.60;;
44143;SDS011;71749;51.920;4.492;2024-03-07T12:39:33;19.77;;;14.20;;
44143;SDS011;71749;51.920;4.492;2024-03-07T12:42:20;22.75;;;15.43;;
44143;SDS011;71749;51.920;4.492;2024-03-07T12:45:05;23.67;;;16.00;;
44143;SDS011;71749;51.920;4.492;2024-03-07T12:47:51;22.25;;;15.63;;
44143;SDS011;71749;51.920;4.492;2024-03-07T12:50:44;22.55;;;15.85;;
44143;SDS011;71749;51.920;4.492;2024-03-07T12:53:31;21.67;;;16.13;;
44143;SDS011;71749;51.920;4.492;2024-03-07T12:56:17;23.05;;;16.90;;
44143;SDS011;71749;51.920;4.492;2024-03-07T12:59:05;23.63;;;16.17;;
44143;SDS011;71749;51.920;4.492;2024-03-07T13:01:54;20.52;;;15.68;;
44143;SDS011;71749;51.920;4.492;2024-03-07T13:04:42;23.50;;;16.23;;
44143;SDS011;71749;51.920;4.492;2024-03-07T13:07:29;23.50;;;15.65;;
44143;SDS011;71749;51.920;4.492;2024-03-07T13:10:14;24.63;;;16.00;;
44143;SDS011;71749;51.920;4.492;2024-03-07T13:13:00;22.38;;;16.35;;
44143;SDS011;71749;51.920;4.492;2024-03-07T13:15:48;22.10;;;16.50;;
44143;SDS011;71749;51.920;4.492;2024-03-07T13:18:34;22.23;;;16.40;;
44143;SDS011;71749;51.920;4.492;2024-03-07T13:21:20;22.63;;;17.15;;
44143;SDS011;71749;51.920;4.492;2024-03-07T13:24:06;22.23;;;15.27;;
44143;SDS011;71749;51.920;4.492;2024-03-07T13:26:53;22.83;;;16.55;;
44143;SDS011;71749;51.920;4.492;2024-03-07T13:29:39;21.83;;;16.23;;
44143;SDS011;71749;51.920;4.492;2024-03-07T13:32:24;25.98;;;17.48;;
44143;SDS011;71749;51.920;4.492;2024-03-07T13:35:13;23.15;;;15.90;;
44143;SDS011;71749;51.920;4.492;2024-03-07T13:37:59;23.73;;;17.30;;
44143;SDS011;71749;51.920;4.492;2024-03-07T13:40:44;21.90;;;16.27;;
44143;SDS011;71749;51.920;4.492;2024-03-07T13:43:30;22.17;;;17.25;;
44143;SDS011;71749;51.920;4.492;2024-03-07T13:46:19;25.08;;;17.30;;
44143;SDS011;71749;51.920;4.492;2024-03-07T13:49:06;24.50;;;16.63;;
44143;SDS011;71749;51.920;4.492;2024-03-07T13:51:52;21.10;;;16.00;;
44143;SDS011;71749;51.920;4.492;2024-03-07T13:54:48;23.05;;;17.15;;
44143;SDS011;71749;51.920;4.492;2024-03-07T13:57:46;23.58;;;16.77;;
44143;SDS011;71749;51.920;4.492;2024-03-07T14:00:47;25.50;;;17.13;;
44143;SDS011;71749;51.920;4.492;2024-03-07T14:13:12;25.48;;;18.27;;
44143;SDS011;71749;51.920;4.492;2024-03-07T14:19:28;23.80;;;15.65;;
44143;SDS011;71749;51.920;4.492;2024-03-07T14:25:44;23.33;;;17.23;;
44143;SDS011;71749;51.920;4.492;2024-03-07T14:31:28;22.17;;;15.82;;
44143;SDS011;71749;51.920;4.492;2024-03-07T14:37:32;23.77;;;15.48;;
44143;SDS011;71749;51.920;4.492;2024-03-07T14:40:22;24.13;;;15.23;;
44143;SDS011;71749;51.920;4.492;2024-03-07T14:43:10;21.80;;;15.10;;
44143;SDS011;71749;51.920;4.492;2024-03-07T14:45:56;22.48;;;15.45;;
44143;SDS011;71749;51.920;4.492;2024-03-07T14:48:42;19.58;;;14.57;;
44143;SDS011;71749;51.920;4.492;2024-03-07T14:51:28;19.77;;;13.90;;
44143;SDS011;71749;51.920;4.492;2024-03-07T14:54:18;19.25;;;14.20;;
44143;SDS011;71749;51.920;4.492;2024-03-07T14:57:03;20.20;;;14.40;;
44143;SDS011;71749;51.920;4.492;2024-03-07T14:59:50;18.88;;;13.65;;
44143;SDS011;71749;51.920;4.492;2024-03-07T15:02:36;20.40;;;13.85;;
44143;SDS011;71749;51.920;4.492;2024-03-07T15:05:23;22.45;;;16.58;;
44143;SDS011;71749;51.920;4.492;2024-03-07T15:08:12;18.15;;;13.45;;
44143;SDS011;71749;51.920;4.492;2024-03-07T15:11:00;20.00;;;14.52;;
44143;SDS011;71749;51.920;4.492;2024-03-07T15:13:54;19.90;;;13.65;;
44143;SDS011;71749;51.920;4.492;2024-03-07T15:16:39;22.98;;;14.32;;
44143;SDS011;71749;51.920;4.492;2024-03-07T15:19:25;24.33;;;14.75;;
44143;SDS011;71749;51.920;4.492;2024-03-07T15:22:11;20.45;;;15.07;;
44143;SDS011;71749;51.920;4.492;2024-03-07T15:24:56;19.55;;;14.18;;
44143;SDS011;71749;51.920;4.492;2024-03-07T15:27:44;20.25;;;14.10;;
44143;SDS011;71749;51.920;4.492;2024-03-07T15:30:32;21.23;;;15.60;;
44143;SDS011;71749;51.920;4.492;2024-03-07T15:33:21;21.80;;;14.65;;
44143;SDS011;71749;51.920;4.492;2024-03-07T15:36:07;20.08;;;14.35;;
44143;SDS011;71749;51.920;4.492;2024-03-07T15:38:54;22.63;;;15.73;;
44143;SDS011;71749;51.920;4.492;2024-03-07T15:41:39;21.88;;;15.88;;
44143;SDS011;71749;51.920;4.492;2024-03-07T15:44:25;21.30;;;15.75;;
44143;SDS011;71749;51.920;4.492;2024-03-07T15:47:10;20.70;;;15.38;;
44143;SDS011;71749;51.920;4.492;2024-03-07T15:49:57;21.88;;;15.75;;
44143;SDS011;71749;51.920;4.492;2024-03-07T15:52:43;19.38;;;15.00;;
44143;SDS011;71749;51.920;4.492;2024-03-07T15:55:28;23.42;;;16.23;;
44143;SDS011;71749;51.920;4.492;2024-03-07T15:58:14;23.42;;;16.77;;
44143;SDS011;71749;51.920;4.492;2024-03-07T16:01:02;18.95;;;14.20;;
44143;SDS011;71749;51.920;4.492;2024-03-07T16:03:51;21.05;;;15.63;;
44143;SDS011;71749;51.920;4.492;2024-03-07T16:06:36;20.45;;;15.20;;
44143;SDS011;71749;51.920;4.492;2024-03-07T16:09:22;23.02;;;15.68;;
44143;SDS011;71749;51.920;4.492;2024-03-07T16:12:08;19.33;;;14.43;;
44143;SDS011;71749;51.920;4.492;2024-03-07T16:14:54;18.17;;;14.35;;
44143;SDS011;71749;51.920;4.492;2024-03-07T16:17:41;18.50;;;13.80;;
44143;SDS011;71749;51.920;4.492;2024-03-07T16:20:34;18.88;;;14.13;;
44143;SDS011;71749;51.920;4.492;2024-03-07T16:23:19;19.20;;;14.70;;
44143;SDS011;71749;51.920;4.492;2024-03-07T16:26:04;20.95;;;15.07;;
44143;SDS011;71749;51.920;4.492;2024-03-07T16:28:50;18.17;;;13.63;;
44143;SDS011;71749;51.920;4.492;2024-03-07T16:31:36;18.73;;;14.05;;
44143;SDS011;71749;51.920;4.492;2024-03-07T16:34:23;20.45;;;14.88;;
44143;SDS011;71749;51.920;4.492;2024-03-07T16:37:09;19.48;;;14.13;;
44143;SDS011;71749;51.920;4.492;2024-03-07T16:39:54;19.88;;;14.82;;
44143;SDS011;71749;51.920;4.492;2024-03-07T16:42:40;21.23;;;14.68;;
44143;SDS011;71749;51.920;4.492;2024-03-07T16:45:28;18.58;;;13.38;;
44143;SDS011;71749;51.920;4.492;2024-03-07T16:48:16;21.10;;;14.60;;
44143;SDS011;71749;51.920;4.492;2024-03-07T16:51:01;20.10;;;13.93;;